Archival Weather

South Haven Area Rgnl

South Haven, Michigan (KLWA)

Report from: Wednesday, December 6, 2023 2:35 AM EST
Current time: Saturday, February 24, 2024 10:17 AM EST

Current weather – Weather history – Daily summaries
Weather forecast

Temperature2.2°C (36.0°F)
Dew point-0.9°C (30.4°F)
Winds Calm
Visibility10 mi. (16.1 km)
Clouds Ceiling: Broken clouds 3,300 ft. (1,006 m)
Overcast 3,900 ft. (1,189 m)
Altimeter30.20 in.Hg (1023 mB)
Relative humidity80 %
Density altitude-1,790 ft. (-546 m)
Remarks Fully automated report
Automated weather observing station with precipitation discriminator
Flight conditions Visual Meteorological Conditions
Raw dataKLWA 060735Z AUTO 00000KT 10SM BKN033 OVC039 02/M01 A3020 RMK AO2 T00221009
An error has occurred. This application may no longer respond until reloaded. Reload 🗙